createdAt,value
2023-05-05T04:00:34.633Z,278.00
2023-05-05T04:01:35.597Z,281.00
2023-05-05T04:02:35.639Z,293.00
2023-05-05T04:03:35.642Z,303.00
2023-05-05T04:04:35.599Z,315.00
2023-05-05T04:05:35.571Z,327.00
2023-05-05T04:06:35.563Z,343.00
2023-05-05T04:07:35.547Z,356.00
2023-05-05T04:08:35.525Z,374.00
2023-05-05T04:09:35.531Z,387.00
2023-05-05T04:10:35.500Z,400.00
2023-05-05T04:11:35.488Z,414.00
2023-05-05T04:12:35.536Z,429.00
2023-05-05T04:13:35.499Z,448.00
2023-05-05T04:14:35.464Z,464.00
2023-05-05T04:15:35.477Z,482.00
2023-05-05T04:16:35.441Z,505.00
2023-05-05T04:17:35.456Z,526.00
2023-05-05T04:18:35.417Z,537.00
2023-05-05T04:19:35.397Z,549.00
2023-05-05T04:20:35.406Z,565.00
2023-05-05T04:21:35.386Z,580.00
2023-05-05T04:22:35.400Z,603.00
2023-05-05T04:23:35.408Z,621.00
2023-05-05T04:24:35.347Z,630.00
2023-05-05T04:25:35.336Z,653.00
2023-05-05T04:26:35.335Z,655.00
2023-05-05T04:27:35.353Z,677.00
2023-05-05T04:28:35.318Z,691.00
2023-05-05T04:29:35.316Z,699.00
2023-05-05T04:30:35.317Z,709.00
2023-05-05T04:31:35.282Z,724.00
2023-05-05T04:32:35.324Z,730.00
2023-05-05T04:33:35.256Z,736.00
2023-05-05T04:34:35.244Z,744.00
2023-05-05T04:35:35.263Z,767.00
2023-05-05T04:36:35.230Z,779.00
2023-05-05T04:37:35.199Z,807.00
2023-05-05T04:38:35.289Z,798.00
2023-05-05T04:39:35.187Z,831.00
2023-05-05T04:40:35.179Z,797.00
2023-05-05T04:41:35.162Z,814.00
2023-05-05T04:42:35.160Z,808.00
2023-05-05T04:43:35.145Z,841.00
2023-05-05T04:44:35.157Z,864.00
2023-05-05T04:45:35.112Z,868.00
2023-05-05T04:46:35.172Z,865.00
2023-05-05T04:47:35.115Z,851.00
2023-05-05T04:48:35.112Z,840.00
2023-05-05T04:49:35.081Z,856.00
2023-05-05T04:50:35.083Z,885.00
2023-05-05T04:51:35.049Z,895.00
2023-05-05T04:52:35.053Z,886.00
2023-05-05T04:53:35.038Z,892.00
2023-05-05T04:54:35.018Z,943.00
2023-05-05T04:55:35.001Z,982.00
2023-05-05T04:56:35.035Z,994.00
2023-05-05T04:57:35.005Z,864.00
2023-05-05T04:58:34.989Z,963.00
2023-05-05T04:59:34.961Z,950.00
2023-05-05T05:00:34.960Z,851.00
2023-05-05T05:01:37.783Z,927.00
2023-05-05T05:02:35.003Z,935.00
2023-05-05T05:03:35.002Z,890.00
2023-05-05T05:04:34.915Z,973.00
2023-05-05T05:05:34.908Z,980.00
2023-05-05T05:06:34.880Z,1025.00
2023-05-05T05:07:34.876Z,1063.00
2023-05-05T05:08:34.876Z,950.00
2023-05-05T05:09:34.858Z,1000.00
2023-05-05T05:10:34.850Z,1049.00
2023-05-05T05:11:34.849Z,1092.00
2023-05-05T05:12:34.888Z,1022.00
2023-05-05T05:13:34.810Z,1050.00
2023-05-05T05:14:34.793Z,1039.00
2023-05-05T05:15:34.794Z,1086.00
2023-05-05T05:16:34.812Z,1083.00
2023-05-05T05:17:34.798Z,1101.00
2023-05-05T05:18:34.789Z,1101.00
2023-05-05T05:19:34.739Z,1108.00
2023-05-05T05:20:34.741Z,1092.00
2023-05-05T05:21:34.719Z,1116.00
2023-05-05T05:22:34.716Z,1132.00
2023-05-05T05:23:34.696Z,1125.00
2023-05-05T05:24:34.731Z,1138.00
2023-05-05T05:25:34.716Z,1153.00
2023-05-05T05:26:34.681Z,1158.00
2023-05-05T05:27:34.663Z,1195.00
2023-05-05T05:28:34.656Z,1164.00
2023-05-05T05:29:34.646Z,1158.00
2023-05-05T05:30:34.643Z,1097.00
2023-05-05T05:31:34.664Z,1176.00
2023-05-05T05:32:34.620Z,1166.00
2023-05-05T05:33:34.599Z,1213.00
2023-05-05T05:34:34.584Z,1158.00
2023-05-05T05:35:34.590Z,1161.00
2023-05-05T05:36:34.553Z,1293.00
2023-05-05T05:37:34.551Z,1247.00
2023-05-05T05:38:34.560Z,1096.00
2023-05-05T05:39:34.527Z,1204.00
2023-05-05T05:40:34.574Z,1173.00
2023-05-05T05:41:34.510Z,1135.00
2023-05-05T05:42:34.491Z,1226.00
2023-05-05T05:43:34.496Z,1220.00
2023-05-05T05:44:34.483Z,1188.00
2023-05-05T05:45:34.452Z,1203.00
2023-05-05T05:46:34.525Z,1421.00
2023-05-05T05:47:34.473Z,1669.00
2023-05-05T05:48:34.425Z,731.00
2023-05-05T05:49:34.409Z,1227.00
2023-05-05T05:50:34.397Z,1384.00
2023-05-05T05:51:34.389Z,1252.00
2023-05-05T05:52:34.377Z,1173.00
2023-05-05T05:53:34.396Z,1523.00
2023-05-05T05:54:34.393Z,1338.00
2023-05-05T05:55:34.352Z,1246.00
2023-05-05T05:56:34.361Z,1439.00
2023-05-05T05:57:34.353Z,1252.00
2023-05-05T05:58:34.307Z,1424.00
2023-05-05T05:59:34.302Z,1473.00
2023-05-05T06:00:34.344Z,1499.00
2023-05-05T06:01:34.284Z,1520.00
2023-05-05T06:02:34.373Z,1553.00
2023-05-05T06:03:34.428Z,1604.00
2023-05-05T06:04:34.335Z,1623.00
2023-05-05T06:05:34.241Z,1651.00
2023-05-05T06:06:34.253Z,1823.00
2023-05-05T06:07:35.560Z,1854.00
2023-05-05T06:08:34.465Z,1988.00
2023-05-05T06:09:34.227Z,1946.00
2023-05-05T06:10:34.539Z,1971.00
2023-05-05T06:11:34.202Z,1771.00
2023-05-05T06:12:34.184Z,1861.00
2023-05-05T06:13:34.135Z,1791.00
2023-05-05T06:14:34.141Z,2250.00
2023-05-05T06:15:34.113Z,1962.00
2023-05-05T06:16:34.211Z,2058.00
2023-05-05T06:17:34.105Z,1896.00
2023-05-05T06:18:34.101Z,2282.00
2023-05-05T06:19:34.080Z,2068.00
2023-05-05T06:20:34.086Z,1956.00
2023-05-05T06:21:34.044Z,1409.00
2023-05-05T06:22:34.048Z,2180.00
2023-05-05T06:23:34.049Z,2407.00
2023-05-05T06:24:34.178Z,2403.00
2023-05-05T06:25:34.016Z,2445.00
2023-05-05T06:26:33.998Z,2418.00
2023-05-05T06:27:34.013Z,2375.00
2023-05-05T06:28:33.983Z,2411.00
2023-05-05T06:29:33.971Z,2914.00
2023-05-05T06:30:33.960Z,860.00
2023-05-05T06:31:33.998Z,2045.00
2023-05-05T06:32:34.013Z,2487.00
2023-05-05T06:33:33.928Z,2531.00
2023-05-05T06:34:33.923Z,2817.00
2023-05-05T06:35:33.909Z,1859.00
2023-05-05T06:36:33.898Z,1603.00
2023-05-05T06:37:33.894Z,3257.00
2023-05-05T06:38:33.856Z,1888.00
2023-05-05T06:39:33.856Z,2519.00
2023-05-05T06:40:33.840Z,2043.00
2023-05-05T06:41:33.834Z,1838.00
2023-05-05T06:42:33.828Z,2242.00
2023-05-05T06:43:33.818Z,1859.00
2023-05-05T06:44:33.797Z,2384.00
2023-05-05T06:45:33.804Z,1959.00
2023-05-05T06:46:33.861Z,2727.00
2023-05-05T06:47:33.801Z,2000.00
2023-05-05T06:48:33.816Z,2386.00
2023-05-05T06:49:33.832Z,2287.00
2023-05-05T06:50:33.732Z,2565.00
2023-05-05T06:51:33.726Z,2429.00
2023-05-05T06:52:33.703Z,2612.00
2023-05-05T06:53:33.738Z,2780.00
2023-05-05T06:54:33.742Z,2568.00
2023-05-05T06:55:33.672Z,2821.00
2023-05-05T06:56:33.684Z,2727.00
2023-05-05T06:57:33.670Z,2591.00
2023-05-05T06:58:33.647Z,2054.00
2023-05-05T06:59:33.637Z,3282.00
2023-05-05T07:00:33.686Z,1555.00
2023-05-05T07:01:33.654Z,2697.00
2023-05-05T07:02:33.723Z,2290.00
2023-05-05T07:03:33.689Z,1758.00
2023-05-05T07:04:33.585Z,2202.00
2023-05-05T07:05:33.556Z,1914.00
2023-05-05T07:06:33.568Z,1691.00
2023-05-05T07:07:33.566Z,1849.00
2023-05-05T07:08:33.533Z,1665.00
2023-05-05T07:09:33.541Z,1975.00
2023-05-05T07:10:33.518Z,1977.00
2023-05-05T07:11:33.607Z,2151.00
2023-05-05T07:12:33.582Z,1857.00
2023-05-05T07:13:33.524Z,2181.00
2023-05-05T07:14:33.487Z,2637.00
2023-05-05T07:15:33.508Z,1787.00
2023-05-05T07:16:33.519Z,2335.00
2023-05-05T07:17:33.562Z,1814.00
2023-05-05T07:18:33.431Z,2215.00
2023-05-05T07:19:33.634Z,2987.00
2023-05-05T07:20:33.431Z,2140.00
2023-05-05T07:21:33.399Z,2742.00
2023-05-05T07:22:33.395Z,855.00
2023-05-05T07:23:33.388Z,2454.00
2023-05-05T07:24:33.362Z,2774.00
2023-05-05T07:25:33.355Z,2487.00
2023-05-05T07:26:33.350Z,2525.00
2023-05-05T07:27:33.359Z,2875.00
2023-05-05T07:28:33.328Z,2973.00
2023-05-05T07:29:33.300Z,2905.00
2023-05-05T07:30:33.315Z,3079.00
2023-05-05T07:31:33.298Z,2841.00
2023-05-05T07:32:33.315Z,2897.00
2023-05-05T07:33:33.258Z,3134.00
2023-05-05T07:34:33.263Z,3154.00
2023-05-05T07:35:33.249Z,3193.00
2023-05-05T07:36:33.247Z,3155.00
2023-05-05T07:37:33.230Z,3154.00
2023-05-05T07:38:33.202Z,3118.00
2023-05-05T07:39:33.198Z,3218.00
2023-05-05T07:40:33.198Z,3228.00
2023-05-05T07:41:33.184Z,3281.00
2023-05-05T07:42:33.160Z,3289.00
2023-05-05T07:43:33.145Z,3311.00
2023-05-05T07:44:33.144Z,3451.00
2023-05-05T07:45:33.144Z,3616.00
2023-05-05T07:46:33.169Z,3252.00
2023-05-05T07:47:33.110Z,3263.00
2023-05-05T07:48:33.148Z,3424.00
2023-05-05T07:49:33.093Z,3508.00
2023-05-05T07:50:33.077Z,3063.00
2023-05-05T07:51:34.599Z,3216.00
2023-05-05T07:52:45.193Z,3365.00
2023-05-05T07:53:33.043Z,3374.00
2023-05-05T07:54:33.025Z,3466.00
2023-05-05T07:55:33.012Z,3352.00
2023-05-05T07:56:33.016Z,3516.00
2023-05-05T07:57:32.977Z,3527.00
2023-05-05T07:58:32.993Z,3600.00
2023-05-05T07:59:32.961Z,3661.00
2023-05-05T08:00:32.980Z,3613.00
2023-05-05T08:01:32.948Z,3716.00
2023-05-05T08:02:33.030Z,3569.00
2023-05-05T08:03:33.076Z,3634.00
2023-05-05T08:04:32.938Z,3713.00
2023-05-05T08:05:32.896Z,3753.00
2023-05-05T08:06:32.888Z,3717.00
2023-05-05T08:07:32.882Z,3709.00
2023-05-05T08:08:32.883Z,3699.00
2023-05-05T08:09:32.855Z,3718.00
2023-05-05T08:10:32.875Z,3786.00
2023-05-05T08:11:32.845Z,3785.00
2023-05-05T08:12:32.847Z,3885.00
2023-05-05T08:13:32.839Z,4008.00
2023-05-05T08:14:32.808Z,3452.00
2023-05-05T08:15:32.799Z,3664.00
2023-05-05T08:16:32.900Z,3934.00
2023-05-05T08:17:32.794Z,3939.00
2023-05-05T08:18:32.764Z,3613.00
2023-05-05T08:19:32.764Z,3950.00
2023-05-05T08:20:32.731Z,3863.00
2023-05-05T08:21:32.727Z,3884.00
2023-05-05T08:22:32.746Z,3875.00
2023-05-05T08:23:32.723Z,3959.00
2023-05-05T08:24:32.714Z,3967.00
2023-05-05T08:25:32.688Z,4024.00
2023-05-05T08:26:32.678Z,4029.00
2023-05-05T08:27:32.672Z,3933.00
2023-05-05T08:28:32.668Z,4041.00
2023-05-05T08:29:32.700Z,3898.00
2023-05-05T08:30:32.622Z,3919.00
2023-05-05T08:31:32.663Z,3912.00
2023-05-05T08:32:32.625Z,3925.00
2023-05-05T08:33:32.599Z,4111.00
2023-05-05T08:34:32.611Z,3878.00
2023-05-05T08:35:32.641Z,4245.00
2023-05-05T08:36:32.561Z,4098.00
2023-05-05T08:37:32.551Z,4185.00
2023-05-05T08:38:32.531Z,4155.00
2023-05-05T08:39:32.572Z,4370.00
2023-05-05T08:40:32.601Z,4157.00
2023-05-05T08:41:32.549Z,4197.00
2023-05-05T08:42:36.981Z,4303.00
2023-05-05T08:43:32.495Z,4154.00
2023-05-05T08:44:32.513Z,4416.00
2023-05-05T08:45:32.453Z,4186.00
2023-05-05T08:46:32.540Z,4053.00
2023-05-05T08:47:32.499Z,4217.00
2023-05-05T08:48:32.442Z,4115.00
2023-05-05T08:49:32.416Z,4302.00
2023-05-05T08:50:32.424Z,4208.00
2023-05-05T08:51:32.396Z,4390.00
2023-05-05T08:52:32.441Z,4584.00
2023-05-05T08:53:32.390Z,4566.00
2023-05-05T08:54:33.229Z,4548.00
2023-05-05T08:55:32.360Z,4653.00
2023-05-05T08:56:32.337Z,4496.00
2023-05-05T08:57:32.339Z,4779.00
2023-05-05T08:58:32.305Z,4278.00
2023-05-05T08:59:32.315Z,4428.00
2023-05-05T09:00:32.322Z,4754.00
2023-05-05T09:01:32.375Z,4427.00
2023-05-05T09:02:32.351Z,4384.00
2023-05-05T09:03:32.340Z,4525.00
2023-05-05T09:04:32.273Z,4582.00
2023-05-05T09:05:32.303Z,4947.00
2023-05-05T09:06:32.229Z,5227.00
2023-05-05T09:07:32.215Z,5068.00
2023-05-05T09:08:32.204Z,4976.00
2023-05-05T09:09:32.226Z,6743.00
2023-05-05T09:10:32.220Z,3144.00
2023-05-05T09:11:32.274Z,5311.00
2023-05-05T09:12:32.191Z,5459.00
2023-05-05T09:13:32.161Z,5619.00
2023-05-05T09:14:32.751Z,5469.00
2023-05-05T09:15:32.133Z,5178.00
2023-05-05T09:16:32.182Z,5527.00
2023-05-05T09:17:32.136Z,5314.00
2023-05-05T09:18:32.095Z,5463.00
2023-05-05T09:19:32.149Z,5538.00
2023-05-05T09:20:32.072Z,5553.00
2023-05-05T09:21:32.087Z,5617.00
2023-05-05T09:22:32.061Z,5433.00
2023-05-05T09:23:32.053Z,5673.00
2023-05-05T09:24:32.033Z,5163.00
2023-05-05T09:25:32.024Z,5262.00
2023-05-05T09:26:32.053Z,4804.00
2023-05-05T09:27:32.002Z,5034.00
2023-05-05T09:28:31.991Z,5255.00
2023-05-05T09:29:31.986Z,5982.00
2023-05-05T09:30:31.968Z,5837.00
2023-05-05T09:31:32.015Z,5721.00
2023-05-05T09:32:31.973Z,6005.00
2023-05-05T09:33:31.961Z,6059.00
2023-05-05T09:34:31.948Z,7832.00
2023-05-05T09:35:31.916Z,5128.00
2023-05-05T09:36:31.938Z,5826.00
2023-05-05T09:37:31.919Z,4757.00
2023-05-05T09:38:31.879Z,4117.00
2023-05-05T09:39:31.873Z,2807.00
2023-05-05T09:40:31.866Z,5357.00
2023-05-05T09:41:52.895Z,4567.00
2023-05-05T09:42:31.852Z,6108.00
2023-05-05T09:43:31.835Z,5086.00
2023-05-05T09:44:31.826Z,3775.00
2023-05-05T09:45:31.821Z,4249.00
2023-05-05T09:46:31.838Z,4010.00
2023-05-05T09:47:32.927Z,6531.00
2023-05-05T09:48:31.811Z,5291.00
2023-05-05T09:49:31.813Z,6137.00
2023-05-05T09:50:32.781Z,5715.00
2023-05-05T09:51:31.763Z,5885.00
2023-05-05T09:52:31.718Z,6129.00
2023-05-05T09:53:31.714Z,6346.00
2023-05-05T09:54:31.698Z,6122.00
2023-05-05T09:55:31.795Z,6207.00
2023-05-05T09:56:31.686Z,6833.00
2023-05-05T09:57:31.674Z,7074.00
2023-05-05T09:58:31.741Z,9629.00
2023-05-05T09:59:31.700Z,7529.00
2023-05-05T10:00:31.628Z,2055.00
2023-05-05T10:01:31.650Z,7567.00
2023-05-05T10:02:31.671Z,9225.00
2023-05-05T10:03:31.595Z,6471.00
2023-05-05T10:04:31.637Z,4660.00
2023-05-05T10:05:31.586Z,7662.00
2023-05-05T10:06:31.573Z,4392.00
2023-05-05T10:07:31.570Z,7489.00
2023-05-05T10:08:31.602Z,7478.00
2023-05-05T10:09:31.514Z,6836.00
2023-05-05T10:10:31.509Z,8646.00
2023-05-05T10:11:31.507Z,10764.00
2023-05-05T10:12:31.545Z,6555.00
2023-05-05T10:13:31.569Z,4440.00
2023-05-05T10:14:31.494Z,2684.00
2023-05-05T10:15:31.462Z,12275.00
2023-05-05T10:16:31.531Z,5963.00
2023-05-05T10:17:31.550Z,4841.00
2023-05-05T10:18:31.474Z,5257.00
2023-05-05T10:19:31.419Z,6594.00
2023-05-05T10:20:31.671Z,8846.00
2023-05-05T10:21:31.426Z,4448.00
2023-05-05T10:22:31.390Z,7365.00
2023-05-05T10:23:31.387Z,4807.00
2023-05-05T10:24:31.361Z,6579.00
2023-05-05T10:25:31.360Z,6350.00
2023-05-05T10:26:31.352Z,5910.00
2023-05-05T10:27:31.347Z,7598.00
2023-05-05T10:28:31.326Z,7829.00
2023-05-05T10:29:31.297Z,5603.00
2023-05-05T10:30:31.301Z,8424.00
2023-05-05T10:31:31.345Z,4890.00
2023-05-05T10:33:32.333Z,7277.00
2023-05-05T10:34:31.283Z,6552.00
2023-05-05T10:35:31.243Z,6710.00
2023-05-05T10:36:31.233Z,7063.00
2023-05-05T10:37:31.220Z,7599.00
2023-05-05T10:38:31.296Z,7856.00
2023-05-05T10:39:31.212Z,8077.00
2023-05-05T10:40:31.187Z,7292.00
2023-05-05T10:41:31.173Z,8048.00
2023-05-05T10:42:31.188Z,7425.00
2023-05-05T10:43:31.155Z,8048.00
2023-05-05T10:44:31.176Z,8394.00
2023-05-05T10:45:35.411Z,8164.00
2023-05-05T10:46:31.191Z,8364.00
2023-05-05T10:47:31.116Z,8181.00
2023-05-05T10:48:31.116Z,8260.00
2023-05-05T10:49:31.118Z,7986.00
2023-05-05T10:50:31.079Z,8073.00
2023-05-05T10:51:39.878Z,7798.00
2023-05-05T10:52:31.226Z,8126.00
2023-05-05T10:53:31.051Z,8100.00
2023-05-05T10:54:31.084Z,8295.00
2023-05-05T10:55:31.029Z,7555.00
2023-05-05T10:56:31.022Z,8285.00
2023-05-05T10:57:31.016Z,8134.00
2023-05-05T10:58:30.995Z,8345.00
2023-05-05T10:59:30.999Z,8545.00
2023-05-05T11:00:30.963Z,8432.00
2023-05-05T11:01:30.992Z,8445.00
2023-05-05T11:02:30.993Z,8337.00
2023-05-05T11:03:30.982Z,8451.00
2023-05-05T11:04:30.954Z,7957.00
2023-05-05T11:05:30.922Z,8163.00
2023-05-05T11:06:30.905Z,8753.00
2023-05-05T11:07:30.889Z,8607.00
2023-05-05T11:08:30.898Z,8620.00
2023-05-05T11:09:30.895Z,8640.00
2023-05-05T11:10:30.876Z,9042.00
2023-05-05T11:11:30.844Z,8499.00
2023-05-05T11:12:30.880Z,9017.00
2023-05-05T11:13:30.824Z,9324.00
2023-05-05T11:14:30.828Z,9358.00
2023-05-05T11:15:30.826Z,9344.00
2023-05-05T11:16:30.838Z,9010.00
2023-05-05T11:17:30.817Z,9054.00
2023-05-05T11:18:30.777Z,12093.00
2023-05-05T11:19:30.773Z,2507.00
2023-05-05T11:20:30.753Z,9076.00
2023-05-05T11:21:30.749Z,7010.00
2023-05-05T11:22:30.726Z,8043.00
2023-05-05T11:23:30.715Z,7619.00
2023-05-05T11:24:30.711Z,9232.00
2023-05-05T11:25:30.688Z,7123.00
2023-05-05T11:26:30.703Z,9872.00
2023-05-05T11:27:30.669Z,8259.00
2023-05-05T11:28:30.652Z,8123.00
2023-05-05T11:29:30.645Z,8680.00
2023-05-05T11:30:30.657Z,8412.00
2023-05-05T11:31:30.687Z,8957.00
2023-05-05T11:32:30.654Z,7903.00
2023-05-05T11:33:30.659Z,7727.00
2023-05-05T11:34:30.591Z,6818.00
2023-05-05T11:35:30.593Z,8364.00
2023-05-05T11:36:30.572Z,5793.00
2023-05-05T11:37:30.567Z,6610.00
2023-05-05T11:38:30.584Z,6943.00
2023-05-05T11:39:30.527Z,7157.00
2023-05-05T11:40:30.548Z,6809.00
2023-05-05T11:41:30.524Z,7234.00
2023-05-05T11:42:30.575Z,6481.00
2023-05-05T11:43:30.489Z,6720.00
2023-05-05T11:44:30.470Z,6346.00
2023-05-05T11:45:30.470Z,5809.00
2023-05-05T11:46:30.517Z,5919.00
2023-05-05T11:47:30.536Z,7664.00
2023-05-05T11:48:30.451Z,7605.00
2023-05-05T11:49:30.425Z,6843.00
2023-05-05T11:50:30.432Z,6179.00
2023-05-05T11:51:30.403Z,7263.00
2023-05-05T11:52:30.410Z,8299.00
2023-05-05T11:53:30.380Z,7929.00
2023-05-05T11:54:30.394Z,8052.00
2023-05-05T11:55:30.344Z,9474.00
2023-05-05T11:56:30.349Z,9323.00
2023-05-05T11:57:30.347Z,4931.00
2023-05-05T11:58:30.337Z,7998.00
2023-05-05T11:59:30.307Z,11495.00
2023-05-05T12:00:30.317Z,10488.00
2023-05-05T12:01:30.308Z,8615.00
2023-05-05T12:02:30.435Z,10171.00
2023-05-05T12:03:30.362Z,8169.00
2023-05-05T12:04:30.282Z,10048.00
2023-05-05T12:05:30.244Z,10413.00
2023-05-05T12:06:30.226Z,9563.00
2023-05-05T12:07:30.231Z,4224.00
2023-05-05T12:08:30.214Z,11308.00
2023-05-05T12:09:30.214Z,11860.00
2023-05-05T12:10:30.189Z,13243.00
2023-05-05T12:11:30.183Z,12180.00
2023-05-05T12:12:30.183Z,14208.00
2023-05-05T12:13:30.164Z,13712.00
2023-05-05T12:14:30.146Z,11241.00
2023-05-05T12:15:30.134Z,13726.00
2023-05-05T12:16:30.149Z,10138.00
2023-05-05T12:17:30.142Z,12494.00
2023-05-05T12:18:30.100Z,12517.00
2023-05-05T12:19:30.087Z,13475.00
2023-05-05T12:20:30.088Z,11663.00
2023-05-05T12:21:30.100Z,11543.00
2023-05-05T12:22:30.059Z,10526.00
2023-05-05T12:23:30.056Z,10489.00
2023-05-05T12:24:30.031Z,12799.00
2023-05-05T12:25:30.045Z,11136.00
2023-05-05T12:26:30.023Z,11305.00
2023-05-05T12:27:30.001Z,11722.00
2023-05-05T12:28:30.022Z,11195.00
2023-05-05T12:29:29.985Z,12105.00
2023-05-05T12:30:30.068Z,13739.00
2023-05-05T12:31:30.095Z,13403.00
2023-05-05T12:32:29.960Z,13264.00
2023-05-05T12:33:29.950Z,12574.00
2023-05-05T12:34:29.929Z,14683.00
2023-05-05T12:35:29.960Z,13385.00
2023-05-05T12:36:30.658Z,13156.00
2023-05-05T12:37:29.916Z,14529.00
2023-05-05T12:38:29.879Z,14268.00
2023-05-05T12:39:29.887Z,16206.00
2023-05-05T12:40:29.865Z,16108.00
2023-05-05T12:41:29.865Z,11411.00
2023-05-05T12:42:29.886Z,17494.00
2023-05-05T12:43:29.880Z,14653.00
2023-05-05T12:44:29.834Z,17522.00
2023-05-05T12:45:29.841Z,19350.00
2023-05-05T12:46:29.866Z,16659.00
2023-05-05T12:47:29.829Z,16550.00
2023-05-05T12:48:29.816Z,17252.00
2023-05-05T12:49:29.766Z,18835.00
2023-05-05T12:50:29.767Z,17947.00
2023-05-05T12:51:29.775Z,14917.00
2023-05-05T12:52:29.783Z,16797.00
2023-05-05T12:53:29.732Z,18005.00
2023-05-05T12:54:29.725Z,12957.00
2023-05-05T12:55:29.707Z,15115.00
2023-05-05T12:56:29.697Z,16534.00
2023-05-05T12:57:29.706Z,16224.00
2023-05-05T12:58:29.707Z,18054.00
2023-05-05T12:59:29.678Z,20340.00
2023-05-05T13:00:29.658Z,19138.00
2023-05-05T13:01:29.672Z,17888.00
2023-05-05T13:02:29.656Z,17835.00
2023-05-05T13:03:29.683Z,19360.00
2023-05-05T13:04:29.624Z,20844.00
2023-05-05T13:05:29.611Z,22301.00
2023-05-05T13:06:29.579Z,21052.00
2023-05-05T13:07:29.582Z,22005.00
2023-05-05T13:08:29.579Z,23317.00
2023-05-05T13:09:29.559Z,24200.00
2023-05-05T13:10:29.547Z,22469.00
2023-05-05T13:11:29.535Z,21345.00
2023-05-05T13:12:29.532Z,24747.00
2023-05-05T13:13:29.525Z,24878.00
2023-05-05T13:14:29.496Z,22897.00
2023-05-05T13:15:29.539Z,24174.00
2023-05-05T13:16:29.483Z,23956.00
2023-05-05T13:17:34.761Z,22081.00
2023-05-05T13:18:29.471Z,21605.00
2023-05-05T13:19:29.447Z,26437.00
2023-05-05T13:20:29.439Z,26841.00
2023-05-05T13:21:29.441Z,27196.00
2023-05-05T13:22:29.421Z,26893.00
2023-05-05T13:23:29.446Z,26170.00
2023-05-05T13:24:42.337Z,25546.00
2023-05-05T13:25:29.403Z,29415.00
2023-05-05T13:26:29.408Z,30628.00
2023-05-05T13:27:29.397Z,27581.00
2023-05-05T13:28:29.369Z,26023.00
2023-05-05T13:29:31.428Z,28796.00
2023-05-05T13:30:29.342Z,31262.00
2023-05-05T13:31:29.389Z,30651.00
2023-05-05T13:32:29.344Z,30970.00
2023-05-05T13:33:29.385Z,30980.00
2023-05-05T13:34:29.365Z,31776.00
2023-05-05T13:35:29.286Z,32028.00
2023-05-05T13:36:29.311Z,30991.00
2023-05-05T13:37:29.277Z,29150.00
2023-05-05T13:38:29.291Z,31717.00
2023-05-05T13:39:29.255Z,29596.00
2023-05-05T13:40:29.350Z,31219.00
2023-05-05T13:41:29.235Z,31796.00
2023-05-05T13:42:29.215Z,35601.00
2023-05-05T13:43:29.222Z,33139.00
2023-05-05T13:44:29.226Z,31703.00
2023-05-05T13:45:29.198Z,34016.00
2023-05-05T13:46:29.232Z,35810.00
2023-05-05T13:47:29.240Z,35110.00
2023-05-05T13:48:29.165Z,33556.00
2023-05-05T13:49:29.161Z,33196.00
2023-05-05T13:50:29.133Z,37687.00
2023-05-05T13:51:29.168Z,14148.00
2023-05-05T13:52:31.696Z,33536.00
2023-05-05T13:53:29.150Z,35088.00
2023-05-05T13:54:29.101Z,12000.00
2023-05-05T13:55:29.108Z,24948.00
2023-05-05T13:56:29.079Z,25042.00
2023-05-05T13:57:29.069Z,7286.00
2023-05-05T13:58:29.078Z,18801.00
2023-05-05T13:59:29.058Z,12616.00
2023-05-05T14:00:29.048Z,73350.00
2023-05-05T14:01:29.176Z,66622.00
2023-05-05T14:02:29.070Z,12899.00
2023-05-05T14:03:29.028Z,36021.00
2023-05-05T14:04:29.124Z,73508.00
2023-05-05T14:05:29.017Z,73899.00
2023-05-05T14:06:28.973Z,72249.00
2023-05-05T14:07:28.971Z,32899.00
2023-05-05T14:08:28.979Z,74478.00
2023-05-05T14:09:29.077Z,74123.00
2023-05-05T14:10:28.945Z,75423.00
2023-05-05T14:11:28.934Z,76342.00
2023-05-05T14:12:29.018Z,74233.00
2023-05-05T14:13:28.947Z,71688.00
2023-05-05T14:14:28.929Z,43319.00
2023-05-05T14:15:28.982Z,32338.00
2023-05-05T14:16:28.895Z,29820.00
2023-05-05T14:17:28.912Z,35038.00
2023-05-05T14:18:28.943Z,24989.00
2023-05-05T14:19:28.887Z,35622.00
2023-05-05T14:20:28.855Z,27776.00
2023-05-05T14:21:28.848Z,24324.00
2023-05-05T14:22:28.823Z,31645.00
2023-05-05T14:23:28.861Z,29569.00
2023-05-05T14:24:28.864Z,30437.00
2023-05-05T14:25:28.820Z,33508.00
2023-05-05T14:26:28.793Z,74428.00
2023-05-05T14:27:28.773Z,73833.00
2023-05-05T14:28:28.780Z,73586.00
2023-05-05T14:29:28.811Z,38912.00
2023-05-05T14:30:28.762Z,33003.00
2023-05-05T14:31:28.804Z,33579.00
2023-05-05T14:32:28.751Z,34874.00
2023-05-05T14:33:28.714Z,33487.00
2023-05-05T14:34:28.757Z,34068.00
2023-05-05T14:35:28.738Z,11109.00
2023-05-05T14:36:28.681Z,33352.00
2023-05-05T14:37:28.692Z,22036.00
2023-05-05T14:38:28.757Z,24612.00
2023-05-05T14:39:28.657Z,26539.00
2023-05-05T14:40:28.689Z,18523.00
2023-05-05T14:41:28.632Z,21996.00
2023-05-05T14:42:28.622Z,26886.00
2023-05-05T14:43:28.631Z,29173.00
2023-05-05T14:44:28.601Z,21145.00
2023-05-05T14:45:28.604Z,3398.00
2023-05-05T14:46:28.642Z,15371.00
2023-05-05T14:47:28.571Z,15568.00
2023-05-05T14:48:28.561Z,19493.00
2023-05-05T14:49:28.550Z,18492.00
2023-05-05T14:50:28.560Z,8023.00
2023-05-05T14:51:28.529Z,13642.00
2023-05-05T14:52:28.574Z,11897.00
2023-05-05T14:53:28.562Z,15006.00
2023-05-05T14:54:29.104Z,9684.00
2023-05-05T14:55:28.501Z,13440.00
2023-05-05T14:56:28.492Z,23330.00
2023-05-05T14:57:28.459Z,15305.00
2023-05-05T14:58:28.474Z,11640.00
2023-05-05T14:59:28.447Z,5748.00
2023-05-05T15:00:28.455Z,9590.00
2023-05-05T15:01:28.468Z,21198.00
2023-05-05T15:02:28.472Z,17013.00
2023-05-05T15:03:28.728Z,8787.00
2023-05-05T15:04:28.397Z,13300.00
2023-05-05T15:05:28.389Z,15233.00
2023-05-05T15:06:28.368Z,18478.00
2023-05-05T15:07:28.363Z,17691.00
2023-05-05T15:08:28.343Z,11730.00
2023-05-05T15:09:28.376Z,26036.00
2023-05-05T15:10:28.343Z,26689.00
2023-05-05T15:11:28.308Z,19546.00
2023-05-05T15:12:28.322Z,23122.00
2023-05-05T15:13:28.301Z,20598.00
2023-05-05T15:14:28.350Z,18056.00
2023-05-05T15:15:28.282Z,9973.00
2023-05-05T15:16:28.350Z,15430.00
2023-05-05T15:17:28.272Z,20425.00
2023-05-05T15:18:28.243Z,23182.00
2023-05-05T15:19:28.232Z,16862.00
2023-05-05T15:20:28.225Z,12942.00
2023-05-05T15:21:28.216Z,20248.00
2023-05-05T15:22:28.203Z,14165.00
2023-05-05T15:23:28.185Z,13315.00
2023-05-05T15:24:28.278Z,16439.00
2023-05-05T15:25:28.180Z,14200.00
2023-05-05T15:26:28.184Z,12815.00
2023-05-05T15:27:28.156Z,12850.00
2023-05-05T15:28:28.158Z,15615.00
2023-05-05T15:29:28.126Z,13182.00
2023-05-05T15:30:28.108Z,10975.00
2023-05-05T15:31:28.149Z,14114.00
2023-05-05T15:32:28.105Z,13456.00
2023-05-05T15:33:28.070Z,13233.00
2023-05-05T15:34:28.126Z,16235.00
2023-05-05T15:35:28.053Z,17774.00
2023-05-05T15:36:28.054Z,15166.00
2023-05-05T15:37:28.036Z,17041.00
2023-05-05T15:38:28.018Z,19510.00
2023-05-05T15:39:28.024Z,4227.00
2023-05-05T15:40:27.991Z,9045.00
2023-05-05T15:41:28.011Z,20234.00
2023-05-05T15:42:27.970Z,25635.00
2023-05-05T15:43:28.005Z,34123.00
2023-05-05T15:44:27.961Z,29943.00
2023-05-05T15:45:27.989Z,20214.00
2023-05-05T15:46:27.963Z,37424.00
2023-05-05T15:47:27.975Z,20226.00
2023-05-05T15:48:27.918Z,10866.00
2023-05-05T15:49:27.918Z,7506.00
2023-05-05T15:50:27.929Z,5686.00
2023-05-05T15:51:27.931Z,4859.00
2023-05-05T15:52:27.864Z,4674.00
2023-05-05T15:53:27.876Z,4544.00
2023-05-05T15:54:27.851Z,4406.00
2023-05-05T15:55:27.858Z,4012.00
2023-05-05T15:56:27.886Z,3878.00
2023-05-05T15:57:27.833Z,3690.00
2023-05-05T15:58:27.872Z,3693.00
2023-05-05T15:59:27.815Z,3533.00
2023-05-05T16:00:27.785Z,3393.00
2023-05-05T16:01:27.803Z,3330.00
2023-05-05T16:02:27.862Z,3295.00